createdAt,value
2022-12-25T00:02:20.347Z,100845.12
2022-12-25T00:04:46.763Z,100851.91
2022-12-25T00:07:13.229Z,100862.69
2022-12-25T00:09:42.681Z,100872.75
2022-12-25T00:12:09.174Z,100867.81
2022-12-25T00:14:35.678Z,100866.06
2022-12-25T00:17:02.148Z,100866.72
2022-12-25T00:19:28.580Z,100871.09
2022-12-25T00:21:55.017Z,100866.78
2022-12-25T00:24:21.458Z,100873.00
2022-12-25T00:26:47.903Z,100879.00
2022-12-25T00:29:14.368Z,100883.75
2022-12-25T00:31:43.947Z,100888.44
2022-12-25T00:34:10.421Z,100893.78
2022-12-25T00:36:41.700Z,100901.13
2022-12-25T00:39:08.738Z,100907.19
2022-12-25T00:41:53.570Z,100907.41
2022-12-25T00:44:20.118Z,100901.78
2022-12-25T00:46:46.557Z,100909.00
2022-12-25T00:49:13.645Z,100907.09
2022-12-25T00:51:40.278Z,100908.41
2022-12-25T00:54:06.877Z,100906.47
2022-12-25T00:56:36.135Z,100920.63
2022-12-25T00:59:02.595Z,100924.38
2022-12-25T01:01:32.167Z,100923.62
2022-12-25T01:03:58.775Z,100919.78
2022-12-25T01:06:25.390Z,100921.34
2022-12-25T01:09:13.478Z,100923.84
2022-12-25T01:11:39.888Z,100927.53
2022-12-25T01:14:06.442Z,100922.34
2022-12-25T01:16:32.915Z,100927.84
2022-12-25T01:18:59.342Z,100932.00
2022-12-25T01:21:25.923Z,100934.66
2022-12-25T01:23:52.580Z,100933.72
2022-12-25T01:26:19.608Z,100936.94
2022-12-25T01:28:46.039Z,100944.06
2022-12-25T01:31:13.862Z,100949.56
2022-12-25T01:33:40.938Z,100954.66
2022-12-25T01:36:17.367Z,100945.69
2022-12-25T01:38:43.959Z,100939.25
2022-12-25T01:41:11.829Z,100932.00
2022-12-25T01:43:55.720Z,100941.59
2022-12-25T01:46:22.230Z,100965.31
2022-12-25T01:48:48.726Z,100958.00
2022-12-25T01:51:31.730Z,100966.00
2022-12-25T01:53:58.333Z,100946.00
2022-12-25T01:56:24.739Z,100941.87
2022-12-25T01:58:51.854Z,100935.22
2022-12-25T02:01:18.376Z,100934.34
2022-12-25T02:03:44.949Z,100942.13
2022-12-25T02:06:11.478Z,100950.88
2022-12-25T02:08:38.049Z,100955.81
2022-12-25T02:11:04.557Z,100945.31
2022-12-25T02:13:31.098Z,100940.69
2022-12-25T02:16:09.682Z,100936.31
2022-12-25T02:18:43.189Z,100940.69
2022-12-25T02:21:09.921Z,100949.16
2022-12-25T02:23:45.693Z,100943.34
2022-12-25T02:26:17.006Z,100941.69
2022-12-25T02:28:52.686Z,100943.34
2022-12-25T02:31:42.542Z,100947.12
2022-12-25T02:34:11.918Z,100952.97
2022-12-25T02:36:40.545Z,100948.69
2022-12-25T02:39:29.102Z,100968.91
2022-12-25T02:41:55.680Z,100965.78
2022-12-25T02:44:40.588Z,100966.41
2022-12-25T02:47:45.456Z,100968.44
2022-12-25T02:50:31.020Z,100966.09
2022-12-25T02:53:15.911Z,100962.06
2022-12-25T02:56:00.910Z,100966.78
2022-12-25T02:58:45.801Z,100971.00
2022-12-25T03:01:39.886Z,100974.62
2022-12-25T03:04:25.486Z,100974.16
2022-12-25T03:07:05.937Z,100980.34
2022-12-25T03:10:01.813Z,100985.53
2022-12-25T03:12:37.362Z,100990.41
2022-12-25T03:15:23.029Z,100992.00
2022-12-25T03:17:49.435Z,100997.38
2022-12-25T03:20:35.989Z,101006.91
2022-12-25T03:23:21.100Z,100998.81
2022-12-25T03:26:06.228Z,101002.28
2022-12-25T03:28:32.661Z,100994.09
2022-12-25T03:31:13.574Z,101000.03
2022-12-25T03:33:47.157Z,100999.84
2022-12-25T03:36:17.394Z,101006.00
2022-12-25T03:38:50.241Z,101003.03
2022-12-25T03:41:53.919Z,101019.53
2022-12-25T03:44:51.003Z,101013.06
2022-12-25T03:47:37.341Z,101024.34
2022-12-25T03:50:28.731Z,101029.19
2022-12-25T03:53:13.783Z,101029.69
2022-12-25T03:55:58.986Z,101030.09
2022-12-25T03:58:44.527Z,101038.50
2022-12-25T04:01:29.589Z,101045.53
2022-12-25T04:04:14.933Z,101037.41
2022-12-25T04:06:59.778Z,101034.69
2022-12-25T04:09:44.762Z,101022.47
2022-12-25T04:12:29.660Z,101027.94
2022-12-25T04:15:14.764Z,101028.56
2022-12-25T04:17:59.684Z,101011.09
2022-12-25T04:20:44.588Z,101008.53
2022-12-25T04:23:29.815Z,101014.19
2022-12-25T04:26:17.769Z,101015.56
2022-12-25T04:29:02.679Z,101017.69
2022-12-25T04:31:47.860Z,101025.81
2022-12-25T04:34:32.827Z,101031.16
2022-12-25T04:36:59.227Z,101026.47
2022-12-25T04:39:25.685Z,101029.87
2022-12-25T04:41:52.074Z,101015.28
2022-12-25T04:44:18.504Z,101010.34
2022-12-25T04:46:45.164Z,101008.44
2022-12-25T04:49:11.628Z,100998.59
2022-12-25T04:51:38.160Z,100990.50
2022-12-25T04:54:05.066Z,101008.59
2022-12-25T04:56:31.497Z,101010.94
2022-12-25T04:58:57.888Z,101012.50
2022-12-25T05:01:24.581Z,101025.16
2022-12-25T05:03:51.172Z,101021.28
2022-12-25T05:06:17.742Z,101021.47
2022-12-25T05:08:44.261Z,101019.66
2022-12-25T05:11:11.713Z,101026.00
2022-12-25T05:13:38.245Z,101025.78
2022-12-25T05:16:08.496Z,101030.41
2022-12-25T05:18:35.068Z,101044.84
2022-12-25T05:21:01.564Z,101037.41
2022-12-25T05:23:27.976Z,101038.25
2022-12-25T05:25:54.500Z,101039.12
2022-12-25T05:28:21.140Z,101038.13
2022-12-25T05:30:47.563Z,101029.09
2022-12-25T05:33:14.055Z,101022.75
2022-12-25T05:35:40.459Z,101032.53
2022-12-25T05:38:07.010Z,101029.84
2022-12-25T05:40:33.581Z,101035.97
2022-12-25T05:43:00.037Z,101043.03
2022-12-25T05:45:26.508Z,101043.03
2022-12-25T05:47:53.032Z,101043.03
2022-12-25T05:50:19.448Z,101046.50
2022-12-25T05:52:45.917Z,101050.16
2022-12-25T05:55:12.346Z,101053.59
2022-12-25T05:57:38.763Z,101056.16
2022-12-25T06:00:05.820Z,101065.97
2022-12-25T06:02:32.355Z,101069.50
2022-12-25T06:04:58.879Z,101063.16
2022-12-25T06:07:25.269Z,101066.56
2022-12-25T06:09:51.717Z,101061.09
2022-12-25T06:12:18.147Z,101060.03
2022-12-25T06:14:44.557Z,101055.50
2022-12-25T06:17:10.988Z,101055.59
2022-12-25T06:19:37.534Z,101052.91
2022-12-25T06:22:03.952Z,101051.00
2022-12-25T06:24:30.496Z,101055.50
2022-12-25T06:26:56.891Z,101053.75
2022-12-25T06:29:23.291Z,101062.62
2022-12-25T06:31:49.751Z,101065.06
2022-12-25T06:34:16.583Z,101067.87
2022-12-25T06:36:43.353Z,101069.47
2022-12-25T06:39:09.785Z,101077.53
2022-12-25T06:41:36.180Z,101077.31
2022-12-25T06:44:02.639Z,101072.78
2022-12-25T06:46:30.006Z,101073.56
2022-12-25T06:48:57.231Z,101079.66
2022-12-25T06:51:24.089Z,101086.75
2022-12-25T06:53:50.663Z,101084.06
2022-12-25T06:56:17.972Z,101086.03
2022-12-25T06:58:44.904Z,101089.44
2022-12-25T07:01:15.475Z,101098.28
2022-12-25T07:03:42.514Z,101106.09
2022-12-25T07:06:08.961Z,101110.75
2022-12-25T07:08:35.381Z,101106.94
2022-12-25T07:11:01.877Z,101118.59
2022-12-25T07:13:30.860Z,101117.63
2022-12-25T07:15:57.785Z,101126.44
2022-12-25T07:18:24.326Z,101141.59
2022-12-25T07:20:50.836Z,101137.84
2022-12-25T07:23:17.278Z,101153.00
2022-12-25T07:25:43.690Z,101155.47
2022-12-25T07:28:10.393Z,101154.63
2022-12-25T07:30:37.496Z,101157.53
2022-12-25T07:33:03.988Z,101160.00
2022-12-25T07:35:30.404Z,101156.44
2022-12-25T07:37:56.814Z,101160.84
2022-12-25T07:40:23.449Z,101154.28
2022-12-25T07:42:49.875Z,101159.03
2022-12-25T07:45:16.566Z,101162.34
2022-12-25T07:47:43.248Z,101168.69
2022-12-25T07:50:09.871Z,101168.59
2022-12-25T07:52:43.083Z,101180.22
2022-12-25T07:55:10.056Z,101178.38
2022-12-25T07:57:36.744Z,101171.03
2022-12-25T08:00:06.617Z,101176.31
2022-12-25T08:02:33.565Z,101175.34
2022-12-25T08:05:00.190Z,101181.44
2022-12-25T08:07:27.313Z,101189.44
2022-12-25T08:09:53.731Z,101188.34
2022-12-25T08:12:20.110Z,101183.81
2022-12-25T08:14:46.512Z,101186.41
2022-12-25T08:17:13.054Z,101188.97
2022-12-25T08:19:39.493Z,101187.91
2022-12-25T08:22:06.188Z,101197.59
2022-12-25T08:24:32.620Z,101191.44
2022-12-25T08:26:59.011Z,101198.53
2022-12-25T08:29:25.524Z,101192.19
2022-12-25T08:31:52.212Z,101203.84
2022-12-25T08:34:19.346Z,101203.84
2022-12-25T08:36:45.827Z,101202.00
2022-12-25T08:39:14.739Z,101202.75
2022-12-25T08:41:41.143Z,101199.81
2022-12-25T08:44:07.711Z,101206.09
2022-12-25T08:46:34.242Z,101214.16
2022-12-25T08:49:00.728Z,101199.72
2022-12-25T08:51:27.396Z,101205.09
2022-12-25T08:53:53.865Z,101205.19
2022-12-25T08:56:20.452Z,101207.66
2022-12-25T08:58:49.245Z,101204.84
2022-12-25T09:01:15.721Z,101213.53
2022-12-25T09:03:43.050Z,101214.56
2022-12-25T09:06:10.806Z,101218.12
2022-12-25T09:08:41.035Z,101217.78
2022-12-25T09:11:13.582Z,101216.66
2022-12-25T09:13:40.059Z,101217.41
2022-12-25T09:16:07.311Z,101217.84
2022-12-25T09:18:33.859Z,101222.16
2022-12-25T09:21:04.518Z,101213.66
2022-12-25T09:23:31.065Z,101219.69
2022-12-25T09:26:00.827Z,101225.69
2022-12-25T09:28:27.284Z,101220.16
2022-12-25T09:30:53.758Z,101223.53
2022-12-25T09:33:20.472Z,101225.34
2022-12-25T09:35:55.990Z,101227.63
2022-12-25T09:38:22.585Z,101224.34
2022-12-25T09:40:49.017Z,101222.28
2022-12-25T09:43:16.521Z,101230.59
2022-12-25T09:45:42.951Z,101222.94
2022-12-25T09:48:10.403Z,101222.44
2022-12-25T09:50:53.333Z,101219.06
2022-12-25T09:53:22.043Z,101221.75
2022-12-25T09:56:08.728Z,101216.87
2022-12-25T09:58:35.134Z,101218.31
2022-12-25T10:01:19.570Z,101218.16
2022-12-25T10:04:01.908Z,101217.81
2022-12-25T10:06:40.496Z,101223.13
2022-12-25T10:09:13.593Z,101218.44
2022-12-25T10:11:52.047Z,101213.06
2022-12-25T10:14:37.370Z,101220.50
2022-12-25T10:17:13.135Z,101210.41
2022-12-25T10:19:48.210Z,101211.38
2022-12-25T10:22:16.260Z,101204.91
2022-12-25T10:24:44.193Z,101199.06
2022-12-25T10:27:23.963Z,101205.25
2022-12-25T10:29:52.731Z,101192.06
2022-12-25T10:32:19.159Z,101196.06
2022-12-25T10:34:45.631Z,101195.94
2022-12-25T10:37:12.288Z,101194.31
2022-12-25T10:39:45.832Z,101186.78
2022-12-25T10:42:34.066Z,101187.22
2022-12-25T10:45:01.383Z,101188.97
2022-12-25T10:47:34.857Z,101186.66
2022-12-25T10:50:01.534Z,101190.00
2022-12-25T10:52:28.876Z,101185.38
2022-12-25T10:54:55.399Z,101182.22
2022-12-25T10:57:22.544Z,101188.00
2022-12-25T10:59:49.729Z,101183.16
2022-12-25T11:02:16.271Z,101187.72
2022-12-25T11:04:42.856Z,101183.53
2022-12-25T11:07:20.962Z,101176.34
2022-12-25T11:10:02.657Z,101173.56
2022-12-25T11:12:42.032Z,101171.44
2022-12-25T11:15:27.405Z,101171.00
2022-12-25T11:17:53.905Z,101159.56
2022-12-25T11:20:20.397Z,101164.31
2022-12-25T11:22:48.520Z,101167.06
2022-12-25T11:25:15.247Z,101171.06
2022-12-25T11:27:42.942Z,101164.25
2022-12-25T11:30:15.848Z,101150.31
2022-12-25T11:32:46.398Z,101149.72
2022-12-25T11:35:15.607Z,101140.25
2022-12-25T11:37:43.609Z,101149.50
2022-12-25T11:40:30.386Z,101148.53
2022-12-25T11:43:13.758Z,101149.28
2022-12-25T11:45:51.518Z,101151.69
2022-12-25T11:48:25.336Z,101146.19
2022-12-25T11:50:52.959Z,101148.75
2022-12-25T11:53:25.279Z,101147.03
2022-12-25T11:55:55.027Z,101155.16
2022-12-25T11:58:21.442Z,101148.28
2022-12-25T12:00:48.001Z,101144.12
2022-12-25T12:03:16.522Z,101142.75
2022-12-25T12:05:43.112Z,101142.31
2022-12-25T12:08:09.873Z,101146.41
2022-12-25T12:10:36.411Z,101141.13
2022-12-25T12:13:14.371Z,101141.94
2022-12-25T12:15:44.433Z,101141.97
2022-12-25T12:18:26.179Z,101141.75
2022-12-25T12:21:02.047Z,101138.97
2022-12-25T12:23:29.053Z,101143.22
2022-12-25T12:25:55.477Z,101151.00
2022-12-25T12:28:25.926Z,101142.69
2022-12-25T12:31:06.081Z,101154.81
2022-12-25T12:33:36.918Z,101154.56
2022-12-25T12:36:03.401Z,101144.66
2022-12-25T12:38:29.861Z,101157.00
2022-12-25T12:40:57.543Z,101157.69
2022-12-25T12:43:23.920Z,101146.94
2022-12-25T12:45:54.544Z,101158.34
2022-12-25T12:48:27.662Z,101152.66
2022-12-25T12:51:04.292Z,101155.53
2022-12-25T12:53:31.076Z,101163.03
2022-12-25T12:55:58.780Z,101161.56
2022-12-25T12:58:27.774Z,101161.00
2022-12-25T13:01:08.398Z,101170.34
2022-12-25T13:03:34.955Z,101164.56
2022-12-25T13:06:02.613Z,101169.47
2022-12-25T13:08:41.015Z,101167.19
2022-12-25T13:11:20.578Z,101170.28
2022-12-25T13:13:47.273Z,101174.34
2022-12-25T13:16:19.379Z,101181.88
2022-12-25T13:18:45.819Z,101177.88
2022-12-25T13:21:14.835Z,101160.59
2022-12-25T13:23:41.327Z,101162.84
2022-12-25T13:26:17.214Z,101162.31
2022-12-25T13:28:45.454Z,101161.66
2022-12-25T13:31:17.923Z,101168.09
2022-12-25T13:33:49.386Z,101166.53
2022-12-25T13:36:15.861Z,101172.06
2022-12-25T13:38:45.649Z,101171.56
2022-12-25T13:41:34.297Z,101170.03
2022-12-25T13:44:00.779Z,101170.19
2022-12-25T13:46:27.332Z,101165.13
2022-12-25T13:49:00.576Z,101167.94
2022-12-25T13:51:27.719Z,101161.94
2022-12-25T13:54:04.080Z,101164.84
2022-12-25T13:56:33.550Z,101171.19
2022-12-25T13:59:00.096Z,101179.31
2022-12-25T14:01:26.571Z,101180.41
2022-12-25T14:03:53.101Z,101180.53
2022-12-25T14:06:26.280Z,101183.38
2022-12-25T14:08:55.383Z,101177.22
2022-12-25T14:11:22.599Z,101180.09
2022-12-25T14:13:49.689Z,101177.62
2022-12-25T14:16:17.054Z,101175.19
2022-12-25T14:19:12.700Z,101181.53
2022-12-25T14:21:40.955Z,101182.53
2022-12-25T14:24:12.846Z,101189.87
2022-12-25T14:26:39.256Z,101184.88
2022-12-25T14:29:05.632Z,101179.72
2022-12-25T14:31:32.195Z,101187.81
2022-12-25T14:33:58.963Z,101190.63
2022-12-25T14:36:25.394Z,101206.69
2022-12-25T14:38:58.737Z,101191.88
2022-12-25T14:41:34.852Z,101192.03
2022-12-25T14:44:01.919Z,101196.66
2022-12-25T14:46:29.461Z,101199.44
2022-12-25T14:48:59.586Z,101202.25
2022-12-25T14:51:26.016Z,101202.38
2022-12-25T14:53:53.649Z,101195.44
2022-12-25T14:56:20.406Z,101199.09
2022-12-25T14:58:47.504Z,101195.75
2022-12-25T15:01:18.978Z,101202.91
2022-12-25T15:03:45.660Z,101199.50
2022-12-25T15:06:20.709Z,101204.03
2022-12-25T15:09:02.121Z,101210.31
2022-12-25T15:11:28.676Z,101201.59
2022-12-25T15:13:55.183Z,101199.06
2022-12-25T15:16:25.168Z,101207.09
2022-12-25T15:18:51.871Z,101201.84
2022-12-25T15:21:30.687Z,101201.94
2022-12-25T15:23:57.521Z,101207.28
2022-12-25T15:26:24.427Z,101210.06
2022-12-25T15:28:51.004Z,101210.16
2022-12-25T15:31:27.783Z,101205.81
2022-12-25T15:33:54.669Z,101211.19
2022-12-25T15:36:21.297Z,101210.34
2022-12-25T15:38:47.715Z,101205.16
2022-12-25T15:41:34.690Z,101210.50
2022-12-25T15:44:01.104Z,101210.56
2022-12-25T15:46:27.612Z,101212.41
2022-12-25T15:48:54.055Z,101223.06
2022-12-25T15:51:20.451Z,101218.72
2022-12-25T15:53:49.544Z,101208.22
2022-12-25T15:56:17.175Z,101206.47
2022-12-25T15:58:43.630Z,101210.94
2022-12-25T16:01:14.348Z,101205.72
2022-12-25T16:03:41.162Z,101214.66
2022-12-25T16:06:11.604Z,101215.56
2022-12-25T16:08:37.998Z,101214.72
2022-12-25T16:11:04.514Z,101224.50
2022-12-25T16:13:30.943Z,101213.06
2022-12-25T16:15:57.585Z,101208.69
2022-12-25T16:18:24.200Z,101208.75
2022-12-25T16:20:53.910Z,101214.97
2022-12-25T16:23:20.683Z,101213.25
2022-12-25T16:25:47.117Z,101208.03
2022-12-25T16:28:13.599Z,101199.28
2022-12-25T16:30:40.225Z,101197.56
2022-12-25T16:33:06.876Z,101198.47
2022-12-25T16:35:33.460Z,101199.44
2022-12-25T16:37:59.895Z,101201.19
2022-12-25T16:40:26.560Z,101188.88
2022-12-25T16:42:54.808Z,101191.59
2022-12-25T16:45:21.291Z,101189.84
2022-12-25T16:47:47.785Z,101189.91
2022-12-25T16:50:14.261Z,101197.88
2022-12-25T16:52:40.680Z,101190.91
2022-12-25T16:55:07.229Z,101187.34
2022-12-25T16:57:33.608Z,101185.63
2022-12-25T17:00:00.100Z,101183.91
2022-12-25T17:02:26.624Z,101179.53
2022-12-25T17:04:53.184Z,101181.38
2022-12-25T17:07:19.738Z,101181.38
2022-12-25T17:09:49.353Z,101184.06
2022-12-25T17:12:16.016Z,101186.72
2022-12-25T17:14:42.485Z,101175.34
2022-12-25T17:17:08.896Z,101182.41
2022-12-25T17:19:35.355Z,101185.97
2022-12-25T17:22:01.768Z,101198.31
2022-12-25T17:24:28.843Z,101193.91
2022-12-25T17:26:55.454Z,101192.19
2022-12-25T17:29:22.966Z,101187.88
2022-12-25T17:31:49.672Z,101187.00
2022-12-25T17:34:16.880Z,101181.78
2022-12-25T17:36:43.287Z,101178.28
2022-12-25T17:39:09.739Z,101174.78
2022-12-25T17:41:36.191Z,101165.97
2022-12-25T17:44:02.693Z,101149.25
2022-12-25T17:46:29.559Z,101151.97
2022-12-25T17:48:56.417Z,101150.22
2022-12-25T17:51:23.414Z,101154.63
2022-12-25T17:53:50.992Z,101155.53
2022-12-25T17:56:17.931Z,101154.75
2022-12-25T17:58:44.494Z,101158.25
2022-12-25T18:01:14.214Z,101154.75
2022-12-25T18:03:40.993Z,101162.75
2022-12-25T18:06:08.377Z,101161.88
2022-12-25T18:08:39.333Z,101166.25
2022-12-25T18:11:10.160Z,101164.53
2022-12-25T18:13:37.173Z,101174.25
2022-12-25T18:16:04.236Z,101165.50
2022-12-25T18:18:30.908Z,101169.91
2022-12-25T18:20:57.445Z,101170.78
2022-12-25T18:23:23.984Z,101164.62
2022-12-25T18:25:50.397Z,101163.78
2022-12-25T18:28:16.872Z,101157.62
2022-12-25T18:30:43.725Z,101157.62
2022-12-25T18:33:12.754Z,101154.12
2022-12-25T18:35:39.694Z,101150.66
2022-12-25T18:38:06.336Z,101153.31
2022-12-25T18:40:32.886Z,101143.66
2022-12-25T18:43:03.270Z,101151.59
2022-12-25T18:45:30.239Z,101146.31
2022-12-25T18:47:56.682Z,101144.59
2022-12-25T18:50:23.147Z,101148.22
2022-12-25T18:52:51.609Z,101148.22
2022-12-25T18:55:18.605Z,101148.22
2022-12-25T18:57:45.020Z,101149.13
2022-12-25T19:00:11.530Z,101142.97
2022-12-25T19:02:38.109Z,101144.75
2022-12-25T19:05:05.689Z,101135.97
2022-12-25T19:07:32.139Z,101142.16
2022-12-25T19:09:58.561Z,101137.81
2022-12-25T19:12:24.978Z,101136.06
2022-12-25T19:14:51.580Z,101135.16
2022-12-25T19:17:18.010Z,101129.94
2022-12-25T19:19:44.472Z,101120.22
2022-12-25T19:22:10.929Z,101122.88
2022-12-25T19:24:37.376Z,101129.03
2022-12-25T19:27:03.888Z,101132.59
2022-12-25T19:29:30.369Z,101141.38
2022-12-25T19:31:57.041Z,101138.78
2022-12-25T19:34:23.873Z,101136.97
2022-12-25T19:36:50.392Z,101126.38
2022-12-25T19:39:16.908Z,101129.94
2022-12-25T19:41:44.460Z,101138.72
2022-12-25T19:44:10.898Z,101146.66
2022-12-25T19:46:40.476Z,101157.22
2022-12-25T19:49:07.928Z,101153.72
2022-12-25T19:51:38.053Z,101132.59
2022-12-25T19:54:04.844Z,101129.94
2022-12-25T19:56:31.399Z,101127.31
2022-12-25T19:58:57.841Z,101132.59
2022-12-25T20:01:25.041Z,101130.81
2022-12-25T20:03:51.578Z,101122.00
2022-12-25T20:06:26.270Z,101111.44
2022-12-25T20:08:53.557Z,101087.72
2022-12-25T20:11:20.427Z,101078.06
2022-12-25T20:13:48.825Z,101081.63
2022-12-25T20:16:15.357Z,101085.19
2022-12-25T20:18:41.873Z,101085.19
2022-12-25T20:21:10.549Z,101094.03
2022-12-25T20:23:37.151Z,101088.75
2022-12-25T20:26:04.962Z,101097.53
2022-12-25T20:28:31.907Z,101104.50
2022-12-25T20:30:58.520Z,101111.53
2022-12-25T20:33:24.935Z,101108.91
2022-12-25T20:35:51.377Z,101099.28
2022-12-25T20:38:17.909Z,101087.87
2022-12-25T20:41:24.437Z,101095.00
2022-12-25T20:43:30.899Z,101089.72
2022-12-25T20:45:57.391Z,101083.53
2022-12-25T20:48:23.892Z,101082.66
2022-12-25T20:50:50.388Z,101092.41
2022-12-25T20:53:16.924Z,101100.38
2022-12-25T20:55:46.730Z,101084.50
2022-12-25T20:58:16.560Z,101088.88
2022-12-25T21:00:43.504Z,101083.66
2022-12-25T21:03:10.266Z,101084.56
2022-12-25T21:05:36.915Z,101096.84
2022-12-25T21:08:03.348Z,101091.63
2022-12-25T21:10:29.757Z,101094.25
2022-12-25T21:12:56.214Z,101098.63
2022-12-25T21:15:23.614Z,101088.13
2022-12-25T21:17:50.154Z,101077.56
2022-12-25T21:20:16.572Z,101071.41
2022-12-25T21:22:43.016Z,101071.34
2022-12-25T21:25:09.592Z,101079.34
2022-12-25T21:27:35.998Z,101085.50
2022-12-25T21:30:15.356Z,101086.44
2022-12-25T21:33:01.055Z,101077.66
2022-12-25T21:35:27.536Z,101076.81
2022-12-25T21:37:54.035Z,101068.94
2022-12-25T21:40:20.452Z,101068.94
2022-12-25T21:42:46.882Z,101070.66
2022-12-25T21:45:13.346Z,101064.53
2022-12-25T21:48:01.434Z,101067.22
2022-12-25T21:50:44.860Z,101057.56
2022-12-25T21:53:17.426Z,101055.84
2022-12-25T21:55:49.926Z,101069.06
2022-12-25T21:58:16.457Z,101063.72
2022-12-25T22:00:42.873Z,101076.00
2022-12-25T22:03:09.424Z,101085.72
2022-12-25T22:05:55.099Z,101092.75
2022-12-25T22:08:21.536Z,101098.00
2022-12-25T22:10:47.927Z,101098.00
2022-12-25T22:13:32.893Z,101094.50
2022-12-25T22:16:24.159Z,101099.72
2022-12-25T22:19:09.401Z,101090.06
2022-12-25T22:21:37.069Z,101087.38
2022-12-25T22:24:07.099Z,101090.06
2022-12-25T22:26:34.075Z,101083.94
2022-12-25T22:29:00.492Z,101087.44
2022-12-25T22:31:26.976Z,101076.91
2022-12-25T22:33:54.333Z,101070.78
2022-12-25T22:36:20.767Z,101069.88
2022-12-25T22:38:47.187Z,101079.56
2022-12-25T22:41:13.605Z,101082.22
2022-12-25T22:44:15.307Z,101087.47
2022-12-25T22:46:27.086Z,101082.19
2022-12-25T22:48:53.630Z,101077.78
2022-12-25T22:51:20.076Z,101086.62
2022-12-25T22:53:46.503Z,101092.75
2022-12-25T22:56:12.908Z,101083.06
2022-12-25T22:58:42.099Z,101080.44
2022-12-25T23:01:09.318Z,101067.28
2022-12-25T23:03:35.800Z,101070.78
2022-12-25T23:06:02.625Z,101076.06
2022-12-25T23:08:31.513Z,101061.09
2022-12-25T23:11:02.268Z,101057.63
2022-12-25T23:13:47.407Z,101065.56
2022-12-25T23:16:14.285Z,101068.19
2022-12-25T23:18:59.380Z,101075.28
2022-12-25T23:21:44.636Z,101069.12
2022-12-25T23:24:29.490Z,101071.75
2022-12-25T23:26:55.885Z,101071.75
2022-12-25T23:29:37.619Z,101064.75
2022-12-25T23:32:04.560Z,101065.59
2022-12-25T23:34:31.128Z,101070.94
2022-12-25T23:36:57.841Z,101068.31
2022-12-25T23:39:24.339Z,101061.28
2022-12-25T23:41:50.714Z,101050.75
2022-12-25T23:44:17.187Z,101044.59
2022-12-25T23:46:52.839Z,101048.22
2022-12-25T23:49:20.378Z,101052.53
2022-12-25T23:51:46.955Z,101049.06
2022-12-25T23:54:14.451Z,101047.28
2022-12-25T23:56:40.876Z,101044.59
2022-12-25T23:59:07.369Z,101048.13
